sensor_id;sensor_type;location;lat;lon;timestamp;pressure;altitude;pressure_sealevel;temperature;humidity
54592;BME280;40488;48.558;18.150;2022-07-21T00:00:20;99812.88;;;21.75;53.78
54592;BME280;40488;48.558;18.150;2022-07-21T00:02:50;99815.47;;;21.75;53.61
54592;BME280;40488;48.558;18.150;2022-07-21T00:05:20;99814.56;;;21.76;53.74
54592;BME280;40488;48.558;18.150;2022-07-21T00:07:48;99819.53;;;21.62;52.84
54592;BME280;40488;48.558;18.150;2022-07-21T00:10:17;99811.34;;;21.71;52.05
54592;BME280;40488;48.558;18.150;2022-07-21T00:12:46;99800.31;;;21.66;52.02
54592;BME280;40488;48.558;18.150;2022-07-21T00:15:15;99796.16;;;21.42;52.50
54592;BME280;40488;48.558;18.150;2022-07-21T00:17:44;99805.75;;;21.19;53.22
54592;BME280;40488;48.558;18.150;2022-07-21T00:20:13;99804.78;;;21.22;53.36
54592;BME280;40488;48.558;18.150;2022-07-21T00:22:44;99806.03;;;21.13;53.84
54592;BME280;40488;48.558;18.150;2022-07-21T00:25:13;99802.72;;;21.10;54.21
54592;BME280;40488;48.558;18.150;2022-07-21T00:27:42;99804.69;;;21.03;54.36
54592;BME280;40488;48.558;18.150;2022-07-21T00:30:11;99806.75;;;20.95;54.89
54592;BME280;40488;48.558;18.150;2022-07-21T00:32:40;99797.09;;;20.99;55.07
54592;BME280;40488;48.558;18.150;2022-07-21T00:35:09;99792.13;;;21.14;54.87
54592;BME280;40488;48.558;18.150;2022-07-21T00:37:38;99793.31;;;21.27;54.66
54592;BME280;40488;48.558;18.150;2022-07-21T00:40:09;99797.25;;;21.36;54.00
54592;BME280;40488;48.558;18.150;2022-07-21T00:42:38;99800.38;;;21.44;53.49
54592;BME280;40488;48.558;18.150;2022-07-21T00:45:06;99800.84;;;21.54;53.53
54592;BME280;40488;48.558;18.150;2022-07-21T00:47:36;99798.00;;;21.40;53.77
54592;BME280;40488;48.558;18.150;2022-07-21T00:50:06;99798.38;;;21.30;54.33
54592;BME280;40488;48.558;18.150;2022-07-21T00:52:35;99796.56;;;21.32;54.31
54592;BME280;40488;48.558;18.150;2022-07-21T00:55:04;99801.34;;;21.42;53.62
54592;BME280;40488;48.558;18.150;2022-07-21T00:57:34;99801.09;;;21.48;53.42
54592;BME280;40488;48.558;18.150;2022-07-21T01:00:03;99803.31;;;21.57;53.75
54592;BME280;40488;48.558;18.150;2022-07-21T01:02:31;99805.94;;;21.55;53.11
54592;BME280;40488;48.558;18.150;2022-07-21T01:05:03;99815.44;;;21.56;53.34
54592;BME280;40488;48.558;18.150;2022-07-21T01:07:32;99811.91;;;21.57;53.25
54592;BME280;40488;48.558;18.150;2022-07-21T01:10:00;99809.41;;;21.56;53.21
54592;BME280;40488;48.558;18.150;2022-07-21T01:12:28;99805.09;;;21.55;53.11
54592;BME280;40488;48.558;18.150;2022-07-21T01:14:58;99794.91;;;21.50;53.33
54592;BME280;40488;48.558;18.150;2022-07-21T01:17:27;99802.91;;;21.46;53.41
54592;BME280;40488;48.558;18.150;2022-07-21T01:19:56;99790.41;;;21.35;53.85
54592;BME280;40488;48.558;18.150;2022-07-21T01:22:26;99798.22;;;21.33;54.17
54592;BME280;40488;48.558;18.150;2022-07-21T01:24:54;99803.06;;;21.22;55.02
54592;BME280;40488;48.558;18.150;2022-07-21T01:27:23;99810.44;;;21.11;55.21
54592;BME280;40488;48.558;18.150;2022-07-21T01:29:52;99809.03;;;21.03;55.38
54592;BME280;40488;48.558;18.150;2022-07-21T01:32:20;99805.19;;;20.91;55.47
54592;BME280;40488;48.558;18.150;2022-07-21T01:34:49;99792.41;;;20.87;55.58
54592;BME280;40488;48.558;18.150;2022-07-21T01:37:20;99802.91;;;20.84;55.70
54592;BME280;40488;48.558;18.150;2022-07-21T01:39:50;99808.47;;;20.75;55.78
54592;BME280;40488;48.558;18.150;2022-07-21T01:42:29;99803.69;;;20.64;55.98
54592;BME280;40488;48.558;18.150;2022-07-21T01:44:57;99806.28;;;20.64;56.56
54592;BME280;40488;48.558;18.150;2022-07-21T01:47:26;99800.50;;;20.57;56.91
54592;BME280;40488;48.558;18.150;2022-07-21T01:49:54;99806.91;;;20.49;57.31
54592;BME280;40488;48.558;18.150;2022-07-21T01:52:23;99809.06;;;20.38;57.29
54592;BME280;40488;48.558;18.150;2022-07-21T01:54:52;99812.91;;;20.28;57.54
54592;BME280;40488;48.558;18.150;2022-07-21T01:57:21;99812.97;;;20.26;57.45
54592;BME280;40488;48.558;18.150;2022-07-21T01:59:49;99808.75;;;20.24;57.64
54592;BME280;40488;48.558;18.150;2022-07-21T02:02:18;99804.34;;;20.26;57.44
54592;BME280;40488;48.558;18.150;2022-07-21T02:04:48;99807.84;;;20.25;57.33
54592;BME280;40488;48.558;18.150;2022-07-21T02:07:17;99812.91;;;20.28;57.61
54592;BME280;40488;48.558;18.150;2022-07-21T02:09:45;99808.63;;;20.27;57.59
54592;BME280;40488;48.558;18.150;2022-07-21T02:12:15;99806.56;;;20.35;57.99
54592;BME280;40488;48.558;18.150;2022-07-21T02:14:43;99801.66;;;20.50;57.56
54592;BME280;40488;48.558;18.150;2022-07-21T02:17:12;99792.63;;;20.60;57.64
54592;BME280;40488;48.558;18.150;2022-07-21T02:19:40;99788.91;;;20.66;57.47
54592;BME280;40488;48.558;18.150;2022-07-21T02:22:08;99794.91;;;20.68;57.55
54592;BME280;40488;48.558;18.150;2022-07-21T02:24:37;99799.28;;;20.66;57.74
54592;BME280;40488;48.558;18.150;2022-07-21T02:27:07;99799.44;;;20.63;57.92
54592;BME280;40488;48.558;18.150;2022-07-21T02:29:36;99788.09;;;20.65;57.87
54592;BME280;40488;48.558;18.150;2022-07-21T02:32:05;99792.31;;;20.68;58.28
54592;BME280;40488;48.558;18.150;2022-07-21T02:34:33;99795.91;;;20.64;58.33
54592;BME280;40488;48.558;18.150;2022-07-21T02:37:02;99790.25;;;20.54;58.62
54592;BME280;40488;48.558;18.150;2022-07-21T02:39:31;99786.88;;;20.52;58.73
54592;BME280;40488;48.558;18.150;2022-07-21T02:41:59;99800.13;;;20.45;59.10
54592;BME280;40488;48.558;18.150;2022-07-21T02:44:28;99791.56;;;20.43;59.06
54592;BME280;40488;48.558;18.150;2022-07-21T02:46:59;99789.47;;;20.31;59.42
54592;BME280;40488;48.558;18.150;2022-07-21T02:49:28;99793.97;;;20.26;59.48
54592;BME280;40488;48.558;18.150;2022-07-21T02:51:56;99800.75;;;20.30;59.41
54592;BME280;40488;48.558;18.150;2022-07-21T02:54:25;99800.38;;;20.39;59.00
54592;BME280;40488;48.558;18.150;2022-07-21T02:56:53;99808.00;;;20.43;58.57
54592;BME280;40488;48.558;18.150;2022-07-21T02:59:21;99806.06;;;20.48;58.20
54592;BME280;40488;48.558;18.150;2022-07-21T03:01:50;99798.22;;;20.50;57.94
54592;BME280;40488;48.558;18.150;2022-07-21T03:04:20;99804.25;;;20.50;57.45
54592;BME280;40488;48.558;18.150;2022-07-21T03:06:48;99802.44;;;20.52;57.47
54592;BME280;40488;48.558;18.150;2022-07-21T03:09:17;99804.13;;;20.53;57.26
54592;BME280;40488;48.558;18.150;2022-07-21T03:11:45;99802.56;;;20.49;56.97
54592;BME280;40488;48.558;18.150;2022-07-21T03:14:13;99809.38;;;20.52;57.21
54592;BME280;40488;48.558;18.150;2022-07-21T03:16:42;99810.16;;;20.54;56.78
54592;BME280;40488;48.558;18.150;2022-07-21T03:19:10;99813.66;;;20.53;56.51
54592;BME280;40488;48.558;18.150;2022-07-21T03:21:40;99808.47;;;20.53;56.73
54592;BME280;40488;48.558;18.150;2022-07-21T03:24:09;99805.22;;;20.48;57.16
54592;BME280;40488;48.558;18.150;2022-07-21T03:26:37;99804.38;;;20.47;57.40
54592;BME280;40488;48.558;18.150;2022-07-21T03:29:06;99801.25;;;20.39;57.65
54592;BME280;40488;48.558;18.150;2022-07-21T03:31:34;99810.88;;;20.36;58.10
54592;BME280;40488;48.558;18.150;2022-07-21T03:34:03;99815.50;;;20.28;58.29
54592;BME280;40488;48.558;18.150;2022-07-21T03:36:31;99812.91;;;20.28;58.74
54592;BME280;40488;48.558;18.150;2022-07-21T03:39:01;99808.22;;;20.37;58.39
54592;BME280;40488;48.558;18.150;2022-07-21T03:41:29;99811.53;;;20.41;58.52
54592;BME280;40488;48.558;18.150;2022-07-21T03:43:58;99802.06;;;20.40;58.36
54592;BME280;40488;48.558;18.150;2022-07-21T03:46:26;99809.97;;;20.37;58.43
54592;BME280;40488;48.558;18.150;2022-07-21T03:48:55;99806.53;;;20.36;58.60
54592;BME280;40488;48.558;18.150;2022-07-21T03:51:24;99810.16;;;20.32;58.78
54592;BME280;40488;48.558;18.150;2022-07-21T03:53:52;99812.97;;;20.26;59.09
54592;BME280;40488;48.558;18.150;2022-07-21T03:56:22;99814.06;;;20.19;59.55
54592;BME280;40488;48.558;18.150;2022-07-21T03:58:51;99819.78;;;20.29;59.60
54592;BME280;40488;48.558;18.150;2022-07-21T04:01:19;99815.84;;;20.42;59.17
54592;BME280;40488;48.558;18.150;2022-07-21T04:03:48;99807.50;;;20.55;58.84
54592;BME280;40488;48.558;18.150;2022-07-21T04:06:16;99806.28;;;20.64;58.58
54592;BME280;40488;48.558;18.150;2022-07-21T04:08:45;99812.81;;;20.74;58.55
54592;BME280;40488;48.558;18.150;2022-07-21T04:11:13;99813.41;;;20.81;58.43
54592;BME280;40488;48.558;18.150;2022-07-21T04:13:43;99809.38;;;20.73;59.17
54592;BME280;40488;48.558;18.150;2022-07-21T04:16:12;99813.47;;;20.79;59.05
54592;BME280;40488;48.558;18.150;2022-07-21T04:18:41;99820.22;;;20.83;59.11
54592;BME280;40488;48.558;18.150;2022-07-21T04:21:09;99823.47;;;20.88;59.22
54592;BME280;40488;48.558;18.150;2022-07-21T04:23:38;99829.22;;;20.96;58.70
54592;BME280;40488;48.558;18.150;2022-07-21T04:26:07;99833.16;;;21.06;58.73
54592;BME280;40488;48.558;18.150;2022-07-21T04:28:35;99833.81;;;21.11;58.92
54592;BME280;40488;48.558;18.150;2022-07-21T04:31:05;99833.81;;;21.11;59.00
54592;BME280;40488;48.558;18.150;2022-07-21T04:33:34;99832.69;;;21.17;59.14
54592;BME280;40488;48.558;18.150;2022-07-21T04:36:04;99832.38;;;21.24;59.55
54592;BME280;40488;48.558;18.150;2022-07-21T04:38:32;99819.16;;;21.30;59.57
54592;BME280;40488;48.558;18.150;2022-07-21T04:41:01;99825.63;;;21.41;58.72
54592;BME280;40488;48.558;18.150;2022-07-21T04:43:29;99824.84;;;21.59;58.23
54592;BME280;40488;48.558;18.150;2022-07-21T04:45:59;99821.44;;;21.77;57.28
54592;BME280;40488;48.558;18.150;2022-07-21T04:48:30;99830.91;;;21.98;56.89
54592;BME280;40488;48.558;18.150;2022-07-21T04:50:58;99830.09;;;22.16;56.86
54592;BME280;40488;48.558;18.150;2022-07-21T04:53:27;99831.84;;;22.34;56.37
54592;BME280;40488;48.558;18.150;2022-07-21T04:55:55;99834.38;;;22.54;56.06
54592;BME280;40488;48.558;18.150;2022-07-21T04:58:23;99831.22;;;22.66;55.37
54592;BME280;40488;48.558;18.150;2022-07-21T05:00:52;99834.78;;;22.83;54.43
54592;BME280;40488;48.558;18.150;2022-07-21T05:03:21;99834.19;;;22.95;54.07
54592;BME280;40488;48.558;18.150;2022-07-21T05:05:50;99834.34;;;23.09;53.80
54592;BME280;40488;48.558;18.150;2022-07-21T05:08:19;99824.09;;;23.23;53.57
54592;BME280;40488;48.558;18.150;2022-07-21T05:10:47;99830.41;;;23.36;53.19
54592;BME280;40488;48.558;18.150;2022-07-21T05:13:16;99835.00;;;23.48;52.81
54592;BME280;40488;48.558;18.150;2022-07-21T05:15:44;99838.59;;;23.63;52.43
54592;BME280;40488;48.558;18.150;2022-07-21T05:18:13;99835.41;;;23.73;52.20
54592;BME280;40488;48.558;18.150;2022-07-21T05:20:41;99835.25;;;23.76;52.05
54592;BME280;40488;48.558;18.150;2022-07-21T05:23:11;99828.78;;;23.83;52.05
54592;BME280;40488;48.558;18.150;2022-07-21T05:25:40;99835.22;;;23.93;52.11
54592;BME280;40488;48.558;18.150;2022-07-21T05:28:08;99832.81;;;24.06;51.94
54592;BME280;40488;48.558;18.150;2022-07-21T05:30:37;99834.69;;;24.20;51.77
54592;BME280;40488;48.558;18.150;2022-07-21T05:33:05;99829.97;;;24.26;51.54
54592;BME280;40488;48.558;18.150;2022-07-21T05:35:33;99830.91;;;24.41;51.51
54592;BME280;40488;48.558;18.150;2022-07-21T05:38:02;99837.47;;;24.48;51.02
54592;BME280;40488;48.558;18.150;2022-07-21T05:40:32;99830.50;;;24.48;50.86
54592;BME280;40488;48.558;18.150;2022-07-21T05:43:00;99836.22;;;24.55;50.58
54592;BME280;40488;48.558;18.150;2022-07-21T05:45:29;99831.16;;;24.67;50.25
54592;BME280;40488;48.558;18.150;2022-07-21T05:47:57;99831.66;;;24.74;50.08
54592;BME280;40488;48.558;18.150;2022-07-21T05:50:26;99829.59;;;24.81;50.07
54592;BME280;40488;48.558;18.150;2022-07-21T05:52:54;99838.56;;;24.91;49.78
54592;BME280;40488;48.558;18.150;2022-07-21T05:55:22;99843.41;;;25.12;49.74
54592;BME280;40488;48.558;18.150;2022-07-21T05:57:53;99841.03;;;25.23;49.76
54592;BME280;40488;48.558;18.150;2022-07-21T06:00:21;99843.69;;;25.38;49.59
54592;BME280;40488;48.558;18.150;2022-07-21T06:02:49;99846.53;;;25.49;49.40
54592;BME280;40488;48.558;18.150;2022-07-21T06:05:18;99849.69;;;25.54;49.06
54592;BME280;40488;48.558;18.150;2022-07-21T06:07:47;99849.53;;;25.57;49.03
54592;BME280;40488;48.558;18.150;2022-07-21T06:10:15;99848.81;;;25.69;48.72
54592;BME280;40488;48.558;18.150;2022-07-21T06:12:49;99849.56;;;25.85;48.57
54592;BME280;40488;48.558;18.150;2022-07-21T06:15:18;99856.31;;;25.89;48.24
54592;BME280;40488;48.558;18.150;2022-07-21T06:17:47;99848.63;;;26.00;48.27
54592;BME280;40488;48.558;18.150;2022-07-21T06:20:16;99845.28;;;26.12;47.92
54592;BME280;40488;48.558;18.150;2022-07-21T06:22:44;99848.06;;;26.23;47.65
54592;BME280;40488;48.558;18.150;2022-07-21T06:25:13;99842.72;;;26.39;47.59
54592;BME280;40488;48.558;18.150;2022-07-21T06:27:41;99845.63;;;26.48;46.92
54592;BME280;40488;48.558;18.150;2022-07-21T06:30:10;99837.91;;;26.59;46.56
54592;BME280;40488;48.558;18.150;2022-07-21T06:32:40;99845.72;;;26.74;46.15
54592;BME280;40488;48.558;18.150;2022-07-21T06:35:09;99844.56;;;26.92;45.67
54592;BME280;40488;48.558;18.150;2022-07-21T06:37:38;99842.50;;;27.09;45.18
54592;BME280;40488;48.558;18.150;2022-07-21T06:40:06;99842.19;;;27.14;44.60
54592;BME280;40488;48.558;18.150;2022-07-21T06:42:35;99844.97;;;27.25;44.95
54592;BME280;40488;48.558;18.150;2022-07-21T06:45:04;99843.03;;;27.41;44.98
54592;BME280;40488;48.558;18.150;2022-07-21T06:47:32;99843.66;;;27.57;45.04
54592;BME280;40488;48.558;18.150;2022-07-21T06:50:02;99843.78;;;27.68;44.36
54592;BME280;40488;48.558;18.150;2022-07-21T06:52:32;99850.38;;;27.74;43.61
54592;BME280;40488;48.558;18.150;2022-07-21T06:55:00;99850.19;;;27.89;43.60
54592;BME280;40488;48.558;18.150;2022-07-21T06:57:29;99847.25;;;28.07;43.71
54592;BME280;40488;48.558;18.150;2022-07-21T06:59:58;99850.41;;;28.12;43.13
54592;BME280;40488;48.558;18.150;2022-07-21T07:02:26;99838.31;;;28.22;42.68
54592;BME280;40488;48.558;18.150;2022-07-21T07:04:55;99847.44;;;28.29;42.65
54592;BME280;40488;48.558;18.150;2022-07-21T07:07:32;99843.19;;;28.39;42.29
54592;BME280;40488;48.558;18.150;2022-07-21T07:10:01;99844.94;;;28.51;42.00
54592;BME280;40488;48.558;18.150;2022-07-21T07:12:29;99847.13;;;28.57;41.45
54592;BME280;40488;48.558;18.150;2022-07-21T07:15:19;99845.22;;;28.72;41.66
54592;BME280;40488;48.558;18.150;2022-07-21T07:17:47;99840.72;;;28.85;41.01
54592;BME280;40488;48.558;18.150;2022-07-21T07:20:17;99845.94;;;28.97;40.52
54592;BME280;40488;48.558;18.150;2022-07-21T07:22:46;99844.75;;;29.01;40.35
54592;BME280;40488;48.558;18.150;2022-07-21T07:25:15;99841.84;;;29.17;40.43
54592;BME280;40488;48.558;18.150;2022-07-21T07:27:51;99838.81;;;29.34;40.36
54592;BME280;40488;48.558;18.150;2022-07-21T07:30:21;99834.75;;;29.41;40.13
54592;BME280;40488;48.558;18.150;2022-07-21T07:32:50;99834.91;;;29.51;39.72
54592;BME280;40488;48.558;18.150;2022-07-21T07:35:19;99830.00;;;29.57;39.34
54592;BME280;40488;48.558;18.150;2022-07-21T07:37:50;99833.25;;;29.72;39.80
54592;BME280;40488;48.558;18.150;2022-07-21T07:40:18;99833.03;;;29.86;39.83
54592;BME280;40488;48.558;18.150;2022-07-21T07:42:48;99829.69;;;29.95;39.11
54592;BME280;40488;48.558;18.150;2022-07-21T07:45:16;99830.78;;;30.04;38.45
54592;BME280;40488;48.558;18.150;2022-07-21T07:47:45;99820.72;;;30.20;37.85
54592;BME280;40488;48.558;18.150;2022-07-21T07:50:14;99822.97;;;30.35;37.55
54592;BME280;40488;48.558;18.150;2022-07-21T07:52:43;99813.28;;;30.36;37.42
54592;BME280;40488;48.558;18.150;2022-07-21T07:55:13;99820.34;;;30.46;36.87
54592;BME280;40488;48.558;18.150;2022-07-21T07:57:42;99814.50;;;30.75;36.63
54592;BME280;40488;48.558;18.150;2022-07-21T08:00:12;99813.97;;;30.92;36.40
54592;BME280;40488;48.558;18.150;2022-07-21T08:03:01;99815.34;;;31.07;36.48
54592;BME280;40488;48.558;18.150;2022-07-21T08:05:30;99808.16;;;31.09;35.90
54592;BME280;40488;48.558;18.150;2022-07-21T08:07:58;99811.25;;;31.14;35.30
54592;BME280;40488;48.558;18.150;2022-07-21T08:10:28;99810.47;;;31.23;34.87
54592;BME280;40488;48.558;18.150;2022-07-21T08:13:12;99813.97;;;31.44;34.74
54592;BME280;40488;48.558;18.150;2022-07-21T08:15:41;99815.94;;;31.52;34.57
54592;BME280;40488;48.558;18.150;2022-07-21T08:18:09;99815.56;;;31.56;33.89
54592;BME280;40488;48.558;18.150;2022-07-21T08:20:38;99801.91;;;31.72;33.73
54592;BME280;40488;48.558;18.150;2022-07-21T10:56:34;99707.81;;;35.89;23.92
54592;BME280;40488;48.558;18.150;2022-07-21T10:59:03;99708.31;;;35.92;24.28
54592;BME280;40488;48.558;18.150;2022-07-21T11:01:31;99694.22;;;35.92;24.12
54592;BME280;40488;48.558;18.150;2022-07-21T11:04:06;99699.59;;;36.08;24.06
54592;BME280;40488;48.558;18.150;2022-07-21T11:06:36;99692.94;;;36.12;23.70
54592;BME280;40488;48.558;18.150;2022-07-21T11:09:05;99690.94;;;36.14;23.88
54592;BME280;40488;48.558;18.150;2022-07-21T11:11:36;99691.97;;;36.13;23.99
54592;BME280;40488;48.558;18.150;2022-07-21T11:14:10;99683.81;;;36.22;24.28
54592;BME280;40488;48.558;18.150;2022-07-21T11:19:26;99679.22;;;36.49;23.92
54592;BME280;40488;48.558;18.150;2022-07-21T11:21:55;99676.72;;;36.47;23.92
54592;BME280;40488;48.558;18.150;2022-07-21T11:24:25;99673.06;;;36.48;23.69
54592;BME280;40488;48.558;18.150;2022-07-21T11:26:55;99677.69;;;36.38;23.27
54592;BME280;40488;48.558;18.150;2022-07-21T11:29:24;99670.88;;;36.27;23.75
54592;BME280;40488;48.558;18.150;2022-07-21T11:31:53;99672.72;;;36.35;24.06
54592;BME280;40488;48.558;18.150;2022-07-21T11:34:21;99668.03;;;36.45;23.80
54592;BME280;40488;48.558;18.150;2022-07-21T11:36:57;99652.94;;;36.46;23.73
54592;BME280;40488;48.558;18.150;2022-07-21T11:39:46;99660.72;;;36.39;23.61
54592;BME280;40488;48.558;18.150;2022-07-21T11:42:16;99656.25;;;36.56;24.21
54592;BME280;40488;48.558;18.150;2022-07-21T11:44:44;99651.44;;;36.67;23.80
54592;BME280;40488;48.558;18.150;2022-07-21T11:47:13;99651.41;;;36.83;23.87
54592;BME280;40488;48.558;18.150;2022-07-21T11:49:42;99649.53;;;37.08;23.74
54592;BME280;40488;48.558;18.150;2022-07-21T11:52:11;99654.88;;;37.08;23.91
54592;BME280;40488;48.558;18.150;2022-07-21T11:54:43;99652.06;;;37.10;23.39
54592;BME280;40488;48.558;18.150;2022-07-21T11:57:12;99644.72;;;37.12;23.24
54592;BME280;40488;48.558;18.150;2022-07-21T11:59:42;99638.56;;;37.11;23.02
54592;BME280;40488;48.558;18.150;2022-07-21T12:02:12;99645.03;;;37.17;23.32
54592;BME280;40488;48.558;18.150;2022-07-21T12:04:42;99643.38;;;37.08;22.91
54592;BME280;40488;48.558;18.150;2022-07-21T12:07:13;99646.69;;;37.18;23.78
54592;BME280;40488;48.558;18.150;2022-07-21T12:09:43;99641.41;;;37.10;22.88
54592;BME280;40488;48.558;18.150;2022-07-21T12:14:58;99640.38;;;37.11;22.82
54592;BME280;40488;48.558;18.150;2022-07-21T12:17:37;99635.69;;;37.29;23.45
54592;BME280;40488;48.558;18.150;2022-07-21T12:20:06;99634.91;;;37.51;23.67
54592;BME280;40488;48.558;18.150;2022-07-21T12:22:36;99630.31;;;37.68;23.26
54592;BME280;40488;48.558;18.150;2022-07-21T12:25:05;99627.50;;;37.69;22.86
54592;BME280;40488;48.558;18.150;2022-07-21T12:27:35;99616.31;;;37.43;22.23
54592;BME280;40488;48.558;18.150;2022-07-21T12:30:06;99621.34;;;37.30;22.03
54592;BME280;40488;48.558;18.150;2022-07-21T12:32:40;99612.78;;;37.12;21.99
54592;BME280;40488;48.558;18.150;2022-07-21T12:38:02;99615.44;;;37.04;22.51
54592;BME280;40488;48.558;18.150;2022-07-21T12:40:31;99609.09;;;37.13;22.22
54592;BME280;40488;48.558;18.150;2022-07-21T12:43:07;99614.56;;;37.19;22.77
54592;BME280;40488;48.558;18.150;2022-07-21T12:48:17;99607.44;;;37.12;22.61
54592;BME280;40488;48.558;18.150;2022-07-21T12:53:25;99599.97;;;37.07;22.24
54592;BME280;40488;48.558;18.150;2022-07-21T12:55:54;99603.75;;;37.13;22.68
54592;BME280;40488;48.558;18.150;2022-07-21T12:58:23;99608.41;;;37.19;22.61
54592;BME280;40488;48.558;18.150;2022-07-21T13:00:51;99596.47;;;37.07;22.49
54592;BME280;40488;48.558;18.150;2022-07-21T13:03:21;99592.47;;;37.03;22.00
54592;BME280;40488;48.558;18.150;2022-07-21T13:05:57;99590.34;;;36.98;22.02
54592;BME280;40488;48.558;18.150;2022-07-21T13:08:26;99585.84;;;36.99;22.27
54592;BME280;40488;48.558;18.150;2022-07-21T13:10:55;99576.19;;;36.89;22.09
54592;BME280;40488;48.558;18.150;2022-07-21T13:13:23;99584.19;;;36.81;22.31
54592;BME280;40488;48.558;18.150;2022-07-21T13:15:52;99575.41;;;36.81;22.78
54592;BME280;40488;48.558;18.150;2022-07-21T13:18:22;99574.19;;;36.91;22.75
54592;BME280;40488;48.558;18.150;2022-07-21T13:20:51;99578.88;;;36.98;22.78
54592;BME280;40488;48.558;18.150;2022-07-21T13:23:19;99579.22;;;36.94;22.60
54592;BME280;40488;48.558;18.150;2022-07-21T13:25:48;99568.56;;;36.94;22.32
54592;BME280;40488;48.558;18.150;2022-07-21T13:28:29;99567.19;;;37.07;22.76
54592;BME280;40488;48.558;18.150;2022-07-21T13:30:58;99566.16;;;37.08;22.49
54592;BME280;40488;48.558;18.150;2022-07-21T13:33:27;99569.66;;;37.08;22.16
54592;BME280;40488;48.558;18.150;2022-07-21T13:35:56;99566.84;;;37.10;22.08
54592;BME280;40488;48.558;18.150;2022-07-21T13:38:24;99560.16;;;37.14;22.05
54592;BME280;40488;48.558;18.150;2022-07-21T13:40:53;99557.91;;;36.94;21.61
54592;BME280;40488;48.558;18.150;2022-07-21T13:43:41;99549.09;;;36.94;23.06
54592;BME280;40488;48.558;18.150;2022-07-21T13:46:12;99551.88;;;37.01;22.52
54592;BME280;40488;48.558;18.150;2022-07-21T13:48:42;99550.56;;;36.88;22.03
54592;BME280;40488;48.558;18.150;2022-07-21T13:51:12;99555.94;;;36.80;21.93
54592;BME280;40488;48.558;18.150;2022-07-21T13:53:40;99554.25;;;36.79;22.27
54592;BME280;40488;48.558;18.150;2022-07-21T13:56:09;99549.91;;;36.86;22.48
54592;BME280;40488;48.558;18.150;2022-07-21T13:58:38;99549.59;;;36.89;22.35
54592;BME280;40488;48.558;18.150;2022-07-21T14:01:06;99555.19;;;37.03;22.70
54592;BME280;40488;48.558;18.150;2022-07-21T14:03:36;99545.22;;;37.05;22.69
54592;BME280;40488;48.558;18.150;2022-07-21T14:06:06;99548.09;;;36.95;22.46
54592;BME280;40488;48.558;18.150;2022-07-21T14:08:35;99548.28;;;36.85;22.32
54592;BME280;40488;48.558;18.150;2022-07-21T14:11:04;99539.59;;;36.83;22.59
54592;BME280;40488;48.558;18.150;2022-07-21T14:13:33;99537.84;;;36.76;22.11
54592;BME280;40488;48.558;18.150;2022-07-21T14:16:02;99539.81;;;36.74;22.26
54592;BME280;40488;48.558;18.150;2022-07-21T14:18:31;99535.03;;;36.61;21.93
54592;BME280;40488;48.558;18.150;2022-07-21T14:21:00;99538.03;;;36.66;22.65
54592;BME280;40488;48.558;18.150;2022-07-21T14:23:31;99534.53;;;36.66;21.70
54592;BME280;40488;48.558;18.150;2022-07-21T14:25:59;99534.22;;;36.61;21.59
54592;BME280;40488;48.558;18.150;2022-07-21T14:28:30;99538.22;;;36.57;21.70
54592;BME280;40488;48.558;18.150;2022-07-21T14:30:58;99526.03;;;36.62;22.29
54592;BME280;40488;48.558;18.150;2022-07-21T14:33:27;99535.72;;;36.55;22.30
54592;BME280;40488;48.558;18.150;2022-07-21T14:35:57;99532.91;;;36.57;22.95
54592;BME280;40488;48.558;18.150;2022-07-21T14:38:26;99523.44;;;36.54;22.44
54592;BME280;40488;48.558;18.150;2022-07-21T14:40:55;99533.09;;;36.47;22.35
54592;BME280;40488;48.558;18.150;2022-07-21T14:43:24;99523.06;;;36.41;22.25
54592;BME280;40488;48.558;18.150;2022-07-21T14:45:53;99519.75;;;36.39;22.57
54592;BME280;40488;48.558;18.150;2022-07-21T14:48:21;99512.78;;;36.38;22.43
54592;BME280;40488;48.558;18.150;2022-07-21T14:50:50;99519.44;;;36.34;22.63
54592;BME280;40488;48.558;18.150;2022-07-21T14:53:19;99515.75;;;36.43;23.14
54592;BME280;40488;48.558;18.150;2022-07-21T14:55:47;99518.44;;;36.51;23.38
54592;BME280;40488;48.558;18.150;2022-07-21T14:58:17;99515.09;;;36.57;23.69
54592;BME280;40488;48.558;18.150;2022-07-21T15:00:46;99505.78;;;36.61;24.14
54592;BME280;40488;48.558;18.150;2022-07-21T15:03:14;99515.09;;;36.57;23.49
54592;BME280;40488;48.558;18.150;2022-07-21T15:05:43;99513.44;;;36.48;22.78
54592;BME280;40488;48.558;18.150;2022-07-21T15:08:11;99512.78;;;36.38;22.58
54592;BME280;40488;48.558;18.150;2022-07-21T15:10:41;99512.16;;;36.28;22.51
54592;BME280;40488;48.558;18.150;2022-07-21T15:13:10;99507.50;;;36.22;22.36
54592;BME280;40488;48.558;18.150;2022-07-21T15:15:40;99509.81;;;36.17;22.51
54592;BME280;40488;48.558;18.150;2022-07-21T15:18:11;99502.50;;;36.19;23.05
54592;BME280;40488;48.558;18.150;2022-07-21T15:20:43;99506.50;;;36.23;23.45
54592;BME280;40488;48.558;18.150;2022-07-21T15:23:12;99502.03;;;36.15;22.57
54592;BME280;40488;48.558;18.150;2022-07-21T15:25:40;99498.38;;;36.00;22.31
54592;BME280;40488;48.558;18.150;2022-07-21T15:28:09;99494.88;;;36.00;22.35
54592;BME280;40488;48.558;18.150;2022-07-21T15:30:37;99496.19;;;35.96;22.36
54592;BME280;40488;48.558;18.150;2022-07-21T15:33:07;99488.22;;;35.96;22.75
54592;BME280;40488;48.558;18.150;2022-07-21T15:35:36;99493.22;;;35.91;22.63
54592;BME280;40488;48.558;18.150;2022-07-21T15:38:06;99488.91;;;35.82;22.43
54592;BME280;40488;48.558;18.150;2022-07-21T15:40:40;99486.56;;;35.79;22.24
54592;BME280;40488;48.558;18.150;2022-07-21T15:43:09;99497.38;;;35.77;22.60
54592;BME280;40488;48.558;18.150;2022-07-21T15:45:37;99481.41;;;35.69;22.61
54592;BME280;40488;48.558;18.150;2022-07-21T15:48:09;99486.56;;;35.62;22.54